Terminal Aerodrome Forecast
Issued by NWS

Home | Current Version | Previous Version | Text Only | Print | Product List | Glossary Off
Versions: 1 2 3 4 5 6 7 8 9 10 11 12 13 14 15 16 17 18 19 20 21 22 23 24 25 26 27 28 29 30 31

979
FTUS43 KGRB 151130
TAFRHI
TAF
KRHI 151130Z 1512/1612 34014G22KT 5SM SHRA OVC013
     FM151500 31012G19KT P6SM OVC020
     FM151900 31009G16KT P6SM BKN035
     FM152200 27005KT P6SM SCT040 BKN120
     FM161000 24003KT P6SM SKC=

USA.gov is the U.S. government's official web portal to all federal, state and local government web resources and services.